createdAt,value
2023-01-03T00:00:00.320Z,0.00
2023-01-03T00:01:01.219Z,0.00
2023-01-03T00:02:01.986Z,0.00
2023-01-03T00:03:02.657Z,0.00
2023-01-03T00:04:03.456Z,0.00
2023-01-03T00:05:04.177Z,0.00
2023-01-03T00:06:04.811Z,0.00
2023-01-03T00:07:05.580Z,0.00
2023-01-03T00:08:06.250Z,0.00
2023-01-03T00:09:06.965Z,0.00
2023-01-03T00:10:07.660Z,0.00
2023-01-03T00:11:08.366Z,0.00
2023-01-03T00:12:09.084Z,0.00
2023-01-03T00:13:09.789Z,0.00
2023-01-03T00:14:10.489Z,0.00
2023-01-03T00:15:11.201Z,0.00
2023-01-03T00:16:11.901Z,0.00
2023-01-03T00:17:13.208Z,0.00
2023-01-03T00:18:13.422Z,0.00
2023-01-03T00:19:14.103Z,0.00
2023-01-03T00:20:14.819Z,0.00
2023-01-03T00:21:15.515Z,0.00
2023-01-03T00:22:16.257Z,0.00
2023-01-03T00:23:16.935Z,0.00
2023-01-03T00:24:17.639Z,0.00
2023-01-03T00:25:18.351Z,0.00
2023-01-03T00:26:19.055Z,0.00
2023-01-03T00:27:19.837Z,0.00
2023-01-03T00:28:20.480Z,0.00
2023-01-03T00:29:21.201Z,0.00
2023-01-03T00:30:21.905Z,0.00
2023-01-03T00:31:22.683Z,0.00
2023-01-03T00:32:23.508Z,0.00
2023-01-03T00:33:24.139Z,0.00
2023-01-03T00:34:24.855Z,0.00
2023-01-03T00:35:25.559Z,0.00
2023-01-03T00:36:26.285Z,0.00
2023-01-03T00:37:27.007Z,0.00
2023-01-03T00:38:27.689Z,0.00
2023-01-03T00:39:28.401Z,0.00
2023-01-03T00:40:29.100Z,0.00
2023-01-03T00:41:29.807Z,0.00
2023-01-03T00:42:30.523Z,0.00
2023-01-03T00:43:31.236Z,0.00
2023-01-03T00:44:31.955Z,0.00
2023-01-03T00:45:35.560Z,0.00
2023-01-03T00:46:33.537Z,0.00
2023-01-03T00:47:34.239Z,0.00
2023-01-03T00:48:34.928Z,0.00
2023-01-03T00:49:35.730Z,0.00
2023-01-03T00:50:36.437Z,0.00
2023-01-03T00:51:37.145Z,0.00
2023-01-03T00:52:37.877Z,0.00
2023-01-03T00:53:38.568Z,0.00
2023-01-03T00:54:39.271Z,0.00
2023-01-03T00:55:39.973Z,0.00
2023-01-03T00:56:40.681Z,0.00
2023-01-03T00:57:41.415Z,0.00
2023-01-03T00:58:42.111Z,0.00
2023-01-03T00:59:42.816Z,0.00
2023-01-03T01:00:43.569Z,0.00
2023-01-03T01:01:47.518Z,0.00
2023-01-03T01:02:45.697Z,0.00
2023-01-03T01:03:46.017Z,0.00
2023-01-03T01:04:46.696Z,0.00
2023-01-03T01:05:47.398Z,0.00
2023-01-03T01:06:48.112Z,0.00
2023-01-03T01:07:49.068Z,0.00
2023-01-03T01:08:49.759Z,0.00
2023-01-03T01:09:50.460Z,0.00
2023-01-03T01:10:51.172Z,0.00
2023-01-03T01:11:51.866Z,0.00
2023-01-03T01:12:53.035Z,0.00
2023-01-03T01:13:53.237Z,0.00
2023-01-03T01:14:53.945Z,0.00
2023-01-03T01:15:54.725Z,0.00
2023-01-03T01:16:55.394Z,0.00
2023-01-03T01:17:56.128Z,0.00
2023-01-03T01:18:56.810Z,0.00
2023-01-03T01:19:57.521Z,0.00
2023-01-03T01:20:58.233Z,0.00
2023-01-03T01:21:58.927Z,0.00
2023-01-03T01:22:59.755Z,0.00
2023-01-03T01:24:00.382Z,0.00
2023-01-03T01:25:01.085Z,0.00
2023-01-03T01:26:01.796Z,0.00
2023-01-03T01:27:02.501Z,0.00
2023-01-03T01:28:03.230Z,0.00
2023-01-03T01:29:03.933Z,0.00
2023-01-03T01:30:04.634Z,0.00
2023-01-03T01:31:05.408Z,0.00
2023-01-03T01:32:06.079Z,0.00
2023-01-03T01:33:06.824Z,0.00
2023-01-03T01:34:07.512Z,0.00
2023-01-03T01:35:08.218Z,0.00
2023-01-03T01:36:08.917Z,0.00
2023-01-03T01:37:09.620Z,0.00
2023-01-03T01:38:10.356Z,0.00
2023-01-03T01:39:11.045Z,0.00
2023-01-03T01:40:11.750Z,0.00
2023-01-03T01:41:12.494Z,0.00
2023-01-03T01:42:19.034Z,0.00
2023-01-03T01:43:14.810Z,0.00
2023-01-03T01:44:14.515Z,0.00
2023-01-03T01:45:15.229Z,0.00
2023-01-03T01:46:16.027Z,0.00
2023-01-03T01:47:16.688Z,0.00
2023-01-03T01:48:17.421Z,0.00
2023-01-03T01:49:18.048Z,0.00
2023-01-03T01:50:18.756Z,0.00
2023-01-03T01:51:19.464Z,0.00
2023-01-03T01:52:20.178Z,0.00
2023-01-03T01:53:20.902Z,0.00
2023-01-03T01:54:21.588Z,0.00
2023-01-03T01:55:22.294Z,0.00
2023-01-03T01:56:23.005Z,0.00
2023-01-03T01:57:23.705Z,0.00
2023-01-03T01:58:24.431Z,0.00
2023-01-03T01:59:25.139Z,0.00
2023-01-03T02:00:25.859Z,0.00
2023-01-03T02:01:26.668Z,0.00
2023-01-03T02:02:27.673Z,0.00
2023-01-03T02:03:28.053Z,0.00
2023-01-03T02:04:28.724Z,0.00
2023-01-03T02:05:29.439Z,0.00
2023-01-03T02:06:30.149Z,0.00
2023-01-03T02:07:30.845Z,0.00
2023-01-03T02:08:31.596Z,0.00
2023-01-03T02:09:32.276Z,0.00
2023-01-03T02:10:32.985Z,0.00
2023-01-03T02:11:33.704Z,0.00
2023-01-03T02:12:34.396Z,0.00
2023-01-03T02:13:35.137Z,0.00
2023-01-03T02:14:35.818Z,0.00
2023-01-03T02:15:36.632Z,0.00
2023-01-03T02:16:37.379Z,0.00
2023-01-03T02:17:38.017Z,0.00
2023-01-03T02:18:38.751Z,0.00
2023-01-03T02:19:39.416Z,0.00
2023-01-03T02:20:40.124Z,0.00
2023-01-03T02:21:40.833Z,0.00
2023-01-03T02:22:41.566Z,0.00
2023-01-03T02:23:42.393Z,0.00
2023-01-03T02:24:43.043Z,0.00
2023-01-03T02:25:43.734Z,0.00
2023-01-03T02:26:44.445Z,0.00
2023-01-03T02:27:45.154Z,0.00
2023-01-03T02:28:46.046Z,0.00
2023-01-03T02:29:46.756Z,0.00
2023-01-03T02:30:47.523Z,0.00
2023-01-03T02:31:48.309Z,0.00
2023-01-03T02:32:48.950Z,0.00
2023-01-03T02:33:49.816Z,0.00
2023-01-03T02:34:50.438Z,0.00
2023-01-03T02:35:51.145Z,0.00
2023-01-03T02:36:51.848Z,0.00
2023-01-03T02:37:52.551Z,0.00
2023-01-03T02:38:53.658Z,0.00
2023-01-03T02:39:53.789Z,0.00
2023-01-03T02:40:54.494Z,0.00
2023-01-03T02:41:55.199Z,0.00
2023-01-03T02:42:55.904Z,0.00
2023-01-03T02:43:56.636Z,0.00
2023-01-03T02:44:57.329Z,0.00
2023-01-03T02:45:58.035Z,0.00
2023-01-03T02:46:58.853Z,0.00
2023-01-03T02:47:59.545Z,0.00
2023-01-03T02:49:00.291Z,0.00
2023-01-03T02:50:00.956Z,0.00
2023-01-03T02:51:01.669Z,0.00
2023-01-03T02:52:02.371Z,0.00
2023-01-03T02:53:03.071Z,0.00
2023-01-03T02:54:03.900Z,0.00
2023-01-03T02:55:04.531Z,0.00
2023-01-03T02:56:05.239Z,0.00
2023-01-03T02:57:05.941Z,0.00
2023-01-03T02:58:06.657Z,0.00
2023-01-03T02:59:07.378Z,0.00
2023-01-03T03:00:08.082Z,0.00
2023-01-03T03:01:08.831Z,0.00
2023-01-03T03:02:09.599Z,0.00
2023-01-03T03:03:10.425Z,0.00
2023-01-03T03:04:11.569Z,0.00
2023-01-03T03:05:11.727Z,0.00
2023-01-03T03:06:12.438Z,0.00
2023-01-03T03:07:13.144Z,0.00
2023-01-03T03:08:13.911Z,0.00
2023-01-03T03:09:14.600Z,0.00
2023-01-03T03:10:15.292Z,0.00
2023-01-03T03:11:16.000Z,0.00
2023-01-03T03:12:16.710Z,0.00
2023-01-03T03:13:17.415Z,0.00
2023-01-03T03:14:18.550Z,0.00
2023-01-03T03:15:18.751Z,0.00
2023-01-03T03:16:19.517Z,0.00
2023-01-03T03:17:20.172Z,0.00
2023-01-03T03:18:20.873Z,0.00
2023-01-03T03:19:22.069Z,0.00
2023-01-03T03:20:22.255Z,0.00
2023-01-03T03:21:22.961Z,0.00
2023-01-03T03:22:23.665Z,0.00
2023-01-03T03:23:24.371Z,0.00
2023-01-03T03:24:25.107Z,0.00
2023-01-03T03:25:25.803Z,0.00
2023-01-03T03:26:26.567Z,0.00
2023-01-03T03:27:27.275Z,0.00
2023-01-03T03:28:27.978Z,0.00
2023-01-03T03:29:28.698Z,0.00
2023-01-03T03:30:29.406Z,0.00
2023-01-03T03:31:30.195Z,0.00
2023-01-03T03:32:30.874Z,0.00
2023-01-03T03:33:31.586Z,0.00
2023-01-03T03:34:32.318Z,0.00
2023-01-03T03:35:32.965Z,0.00
2023-01-03T03:36:33.667Z,0.00
2023-01-03T03:37:34.374Z,0.00
2023-01-03T03:38:35.080Z,0.00
2023-01-03T03:39:35.823Z,0.00
2023-01-03T03:40:36.503Z,0.00
2023-01-03T03:41:37.209Z,0.00
2023-01-03T03:42:37.918Z,0.00
2023-01-03T03:43:38.620Z,0.00
2023-01-03T03:44:39.342Z,0.00
2023-01-03T03:45:40.041Z,0.00
2023-01-03T03:46:40.813Z,0.00
2023-01-03T03:47:41.468Z,0.00
2023-01-03T03:48:42.186Z,0.00
2023-01-03T03:49:42.904Z,0.00
2023-01-03T03:50:43.593Z,0.00
2023-01-03T03:51:44.299Z,0.00
2023-01-03T03:52:45.001Z,0.00
2023-01-03T03:53:45.721Z,0.00
2023-01-03T03:54:46.445Z,0.00
2023-01-03T03:55:47.132Z,0.00
2023-01-03T03:56:47.840Z,0.00
2023-01-03T03:57:48.541Z,0.00
2023-01-03T03:58:49.248Z,0.00
2023-01-03T03:59:50.051Z,0.00
2023-01-03T04:00:50.761Z,0.00
2023-01-03T04:01:51.545Z,0.00
2023-01-03T04:02:52.438Z,0.00
2023-01-03T04:03:53.276Z,0.00
2023-01-03T04:04:53.974Z,0.00
2023-01-03T04:05:54.659Z,0.00
2023-01-03T04:06:55.352Z,0.00
2023-01-03T04:07:56.057Z,0.00
2023-01-03T04:08:56.788Z,0.00
2023-01-03T04:09:57.580Z,0.00
2023-01-03T04:10:58.281Z,0.00
2023-01-03T04:11:58.974Z,0.00
2023-01-03T04:12:59.678Z,0.00
2023-01-03T04:14:00.386Z,0.00
2023-01-03T04:15:01.136Z,0.00
2023-01-03T04:16:01.921Z,0.00
2023-01-03T04:17:02.636Z,0.00
2023-01-03T04:18:03.327Z,0.00
2023-01-03T04:19:04.041Z,0.00
2023-01-03T04:20:05.092Z,0.00
2023-01-03T04:21:05.728Z,0.00
2023-01-03T04:22:06.436Z,0.00
2023-01-03T04:23:07.135Z,0.00
2023-01-03T04:24:07.854Z,0.00
2023-01-03T04:25:08.600Z,0.00
2023-01-03T04:26:09.292Z,0.00
2023-01-03T04:27:10.035Z,0.00
2023-01-03T04:28:10.726Z,0.00
2023-01-03T04:29:11.436Z,0.00
2023-01-03T04:30:12.159Z,0.00
2023-01-03T04:31:12.955Z,0.00
2023-01-03T04:32:13.652Z,0.00
2023-01-03T04:33:14.374Z,0.00
2023-01-03T04:34:15.091Z,0.00
2023-01-03T04:35:16.089Z,0.00
2023-01-03T04:36:16.720Z,0.00
2023-01-03T04:37:17.431Z,0.00
2023-01-03T04:38:18.213Z,0.00
2023-01-03T04:39:18.845Z,0.00
2023-01-03T04:40:19.690Z,0.00
2023-01-03T04:41:20.355Z,0.00
2023-01-03T04:42:21.048Z,0.00
2023-01-03T04:43:21.762Z,0.00
2023-01-03T04:44:22.463Z,0.00
2023-01-03T04:45:23.252Z,0.00
2023-01-03T04:46:23.973Z,0.00
2023-01-03T04:47:24.651Z,0.00
2023-01-03T04:48:25.355Z,0.00
2023-01-03T04:49:26.062Z,0.00
2023-01-03T04:50:26.797Z,0.00
2023-01-03T04:51:27.482Z,0.00
2023-01-03T04:52:28.189Z,0.00
2023-01-03T04:53:28.893Z,0.00
2023-01-03T04:54:29.599Z,0.00
2023-01-03T04:55:30.337Z,0.00
2023-01-03T04:56:31.017Z,0.00
2023-01-03T04:57:31.723Z,0.00
2023-01-03T04:58:32.427Z,0.00
2023-01-03T04:59:33.139Z,0.00
2023-01-03T05:00:33.859Z,0.00
2023-01-03T05:01:34.819Z,0.00
2023-01-03T05:02:35.629Z,0.00
2023-01-03T05:03:36.266Z,0.00
2023-01-03T05:04:37.027Z,0.00
2023-01-03T05:05:37.738Z,0.00
2023-01-03T05:06:38.398Z,0.00
2023-01-03T05:07:39.115Z,0.00
2023-01-03T05:08:39.820Z,0.00
2023-01-03T05:09:40.528Z,0.00
2023-01-03T05:10:41.589Z,0.00
2023-01-03T05:11:41.776Z,0.00
2023-01-03T05:12:42.499Z,0.00
2023-01-03T05:13:43.204Z,0.00
2023-01-03T05:14:43.910Z,0.00
2023-01-03T05:15:44.627Z,0.00
2023-01-03T05:16:45.389Z,0.00
2023-01-03T05:17:46.048Z,0.00
2023-01-03T05:18:46.750Z,0.00
2023-01-03T05:19:47.459Z,0.00
2023-01-03T05:20:48.576Z,0.00
2023-01-03T05:21:48.756Z,0.00
2023-01-03T05:22:49.461Z,0.00
2023-01-03T05:23:50.164Z,0.00
2023-01-03T05:24:50.871Z,0.00
2023-01-03T05:25:52.084Z,0.00
2023-01-03T05:26:52.264Z,0.00
2023-01-03T05:27:52.960Z,0.00
2023-01-03T05:28:53.664Z,0.00
2023-01-03T05:29:54.373Z,0.00
2023-01-03T05:30:55.093Z,0.00
2023-01-03T05:31:55.834Z,0.00
2023-01-03T05:32:56.515Z,0.00
2023-01-03T05:33:57.210Z,0.00
2023-01-03T05:34:57.924Z,0.00
2023-01-03T05:35:58.646Z,0.00
2023-01-03T05:36:59.315Z,0.00
2023-01-03T05:38:00.024Z,0.00
2023-01-03T05:39:00.741Z,0.00
2023-01-03T05:40:01.440Z,0.00
2023-01-03T05:41:02.178Z,0.00
2023-01-03T05:42:02.851Z,0.00
2023-01-03T05:43:03.559Z,0.00
2023-01-03T05:44:04.263Z,0.00
2023-01-03T05:45:04.971Z,0.00
2023-01-03T05:46:05.958Z,0.00
2023-01-03T05:47:06.632Z,0.00
2023-01-03T05:48:07.333Z,0.00
2023-01-03T05:49:08.040Z,0.00
2023-01-03T05:50:08.745Z,0.00
2023-01-03T05:51:09.474Z,0.00
2023-01-03T05:52:10.141Z,0.00
2023-01-03T05:53:10.852Z,0.00
2023-01-03T05:54:11.563Z,0.00
2023-01-03T05:55:12.271Z,0.00
2023-01-03T05:56:13.079Z,0.00
2023-01-03T05:57:13.783Z,0.00
2023-01-03T05:58:14.477Z,0.00
2023-01-03T05:59:15.177Z,0.00
2023-01-03T06:00:15.893Z,0.00
2023-01-03T06:01:17.110Z,0.00
2023-01-03T06:02:17.311Z,0.00
2023-01-03T06:03:17.988Z,0.00
2023-01-03T06:04:18.772Z,0.00
2023-01-03T06:05:19.485Z,0.00
2023-01-03T06:06:20.217Z,0.00
2023-01-03T06:07:20.889Z,0.00
2023-01-03T06:08:21.588Z,0.00
2023-01-03T06:09:22.291Z,0.00
2023-01-03T06:10:22.993Z,0.00
2023-01-03T06:11:23.837Z,0.00
2023-01-03T06:12:24.506Z,0.00
2023-01-03T06:13:25.213Z,0.00
2023-01-03T06:14:25.917Z,0.00
2023-01-03T06:15:26.633Z,0.00
2023-01-03T06:16:27.375Z,0.00
2023-01-03T06:17:28.155Z,0.00
2023-01-03T06:18:28.834Z,0.00
2023-01-03T06:19:29.524Z,0.00
2023-01-03T06:20:30.220Z,0.00
2023-01-03T06:21:30.962Z,0.00
2023-01-03T06:22:31.646Z,0.00
2023-01-03T06:23:32.358Z,0.00
2023-01-03T06:24:33.052Z,0.00
2023-01-03T06:25:33.756Z,0.00
2023-01-03T06:26:34.500Z,0.00
2023-01-03T06:27:35.170Z,0.00
2023-01-03T06:28:35.882Z,0.00
2023-01-03T06:29:36.585Z,0.00
2023-01-03T06:30:37.316Z,0.00
2023-01-03T06:31:38.060Z,0.00
2023-01-03T06:32:38.760Z,0.00
2023-01-03T06:33:39.476Z,0.00
2023-01-03T06:34:40.184Z,0.00
2023-01-03T06:35:40.896Z,0.00
2023-01-03T06:36:42.076Z,0.00
2023-01-03T06:37:42.277Z,0.00
2023-01-03T06:38:42.978Z,0.00
2023-01-03T06:39:43.687Z,0.00
2023-01-03T06:40:45.909Z,0.00
2023-01-03T06:41:45.578Z,0.00
2023-01-03T06:42:45.770Z,0.00
2023-01-03T06:43:46.495Z,0.00
2023-01-03T06:44:47.189Z,0.00
2023-01-03T06:45:47.951Z,0.00
2023-01-03T06:46:49.130Z,0.00
2023-01-03T06:47:49.305Z,0.00
2023-01-03T06:48:50.079Z,0.00
2023-01-03T06:49:50.797Z,0.00
2023-01-03T06:50:51.492Z,0.00
2023-01-03T06:51:52.232Z,0.00
2023-01-03T06:52:52.912Z,0.00
2023-01-03T06:53:53.619Z,0.00
2023-01-03T06:54:54.320Z,0.00
2023-01-03T06:55:57.443Z,0.00
2023-01-03T06:56:55.782Z,0.00
2023-01-03T06:57:56.466Z,0.00
2023-01-03T06:58:57.165Z,0.00
2023-01-03T06:59:57.876Z,0.00
2023-01-03T07:00:58.648Z,4.00
2023-01-03T07:01:59.541Z,4.00
2023-01-03T07:03:03.257Z,4.00
2023-01-03T07:04:01.508Z,4.00
2023-01-03T07:05:01.172Z,0.00
2023-01-03T07:06:01.870Z,4.00
2023-01-03T07:07:02.600Z,4.00
2023-01-03T07:08:03.261Z,8.00
2023-01-03T07:09:03.959Z,8.00
2023-01-03T07:10:04.671Z,8.00
2023-01-03T07:11:05.391Z,12.00
2023-01-03T07:12:06.236Z,12.00
2023-01-03T07:13:06.878Z,16.00
2023-01-03T07:14:07.580Z,16.00
2023-01-03T07:15:08.310Z,16.00
2023-01-03T07:16:09.173Z,20.00
2023-01-03T07:17:09.844Z,28.00
2023-01-03T07:18:10.548Z,28.00
2023-01-03T07:19:11.256Z,32.00
2023-01-03T07:20:11.960Z,36.00
2023-01-03T07:21:12.731Z,44.00
2023-01-03T07:22:13.452Z,48.00
2023-01-03T07:23:14.101Z,52.00
2023-01-03T07:24:14.804Z,60.00
2023-01-03T07:25:15.525Z,72.00
2023-01-03T07:26:16.215Z,80.00
2023-01-03T07:27:17.086Z,92.00
2023-01-03T07:28:17.781Z,104.00
2023-01-03T07:29:18.491Z,112.00
2023-01-03T07:30:19.191Z,116.00
2023-01-03T07:31:19.987Z,124.00
2023-01-03T07:32:21.085Z,132.00
2023-01-03T07:33:21.280Z,144.00
2023-01-03T07:34:21.988Z,156.00
2023-01-03T07:35:22.697Z,168.00
2023-01-03T07:36:23.407Z,172.00
2023-01-03T07:37:24.137Z,172.00
2023-01-03T07:38:24.779Z,180.00
2023-01-03T07:39:25.484Z,188.00
2023-01-03T07:40:26.192Z,204.00
2023-01-03T07:41:26.895Z,216.00
2023-01-03T07:42:27.641Z,232.00
2023-01-03T07:43:28.319Z,252.00
2023-01-03T07:44:29.032Z,272.00
2023-01-03T07:45:29.738Z,296.00
2023-01-03T07:46:30.489Z,324.00
2023-01-03T07:47:31.185Z,340.00
2023-01-03T07:48:31.884Z,368.00
2023-01-03T07:49:32.591Z,384.00
2023-01-03T07:50:33.305Z,396.00
2023-01-03T07:51:34.003Z,412.00
2023-01-03T07:52:34.745Z,432.00
2023-01-03T07:53:35.388Z,464.00
2023-01-03T07:54:36.097Z,496.00
2023-01-03T07:55:36.820Z,532.00
2023-01-03T07:56:37.507Z,576.00
2023-01-03T07:57:38.254Z,604.00
2023-01-03T07:58:38.932Z,628.00
2023-01-03T07:59:39.635Z,668.00
2023-01-03T08:00:40.346Z,720.00
2023-01-03T08:01:41.176Z,760.00
2023-01-03T08:02:42.226Z,780.00
2023-01-03T08:03:42.421Z,824.00
2023-01-03T08:04:43.180Z,860.00
2023-01-03T08:05:43.868Z,924.00
2023-01-03T08:06:44.572Z,980.00
2023-01-03T08:07:45.583Z,992.00
2023-01-03T08:08:46.255Z,1000.00
2023-01-03T08:09:46.960Z,1044.00
2023-01-03T08:10:47.687Z,1144.00
2023-01-03T08:11:48.377Z,1308.00
2023-01-03T08:12:49.614Z,1432.00
2023-01-03T08:13:49.786Z,1556.00
2023-01-03T08:14:50.490Z,1664.00
2023-01-03T08:15:51.287Z,1724.00
2023-01-03T08:16:51.950Z,1760.00
2023-01-03T08:17:52.668Z,1824.00
2023-01-03T08:18:53.370Z,1904.00
2023-01-03T08:19:54.069Z,1876.00
2023-01-03T08:20:54.794Z,1732.00
2023-01-03T08:21:55.488Z,1608.00
2023-01-03T08:22:56.210Z,1556.00
2023-01-03T08:23:56.877Z,1552.00
2023-01-03T08:24:57.589Z,1568.00
2023-01-03T08:25:58.293Z,1596.00
2023-01-03T08:26:58.997Z,1636.00
2023-01-03T08:27:59.754Z,1688.00
2023-01-03T08:29:00.422Z,1796.00
2023-01-03T08:30:01.125Z,2088.00
2023-01-03T08:31:01.880Z,2916.00
2023-01-03T08:32:02.544Z,4032.00
2023-01-03T08:33:03.267Z,4608.00
2023-01-03T08:34:06.474Z,4756.00
2023-01-03T08:35:05.571Z,4988.00
2023-01-03T08:36:05.277Z,5008.00
2023-01-03T08:37:05.979Z,4948.00
2023-01-03T08:38:06.714Z,4884.00
2023-01-03T08:39:07.396Z,4768.00
2023-01-03T08:40:08.087Z,4620.00
2023-01-03T08:41:08.799Z,4364.00
2023-01-03T08:42:09.508Z,4072.00
2023-01-03T08:43:10.252Z,3852.00
2023-01-03T08:44:10.932Z,3776.00
2023-01-03T08:45:11.640Z,3768.00
2023-01-03T08:46:12.394Z,3796.00
2023-01-03T08:47:13.203Z,3940.00
2023-01-03T08:48:13.874Z,4228.00
2023-01-03T08:49:14.578Z,4676.00
2023-01-03T08:50:15.286Z,5000.00
2023-01-03T08:51:15.993Z,5340.00
2023-01-03T08:52:16.713Z,5072.00
2023-01-03T08:53:17.584Z,5832.00
2023-01-03T08:54:18.263Z,5300.00
2023-01-03T08:55:18.979Z,6088.00
2023-01-03T08:56:19.682Z,6432.00
2023-01-03T08:57:20.392Z,6700.00
2023-01-03T08:58:21.734Z,5972.00
2023-01-03T08:59:21.876Z,6828.00
2023-01-03T09:00:22.584Z,6108.00
2023-01-03T09:01:23.374Z,5436.00
2023-01-03T09:02:24.391Z,6308.00
2023-01-03T09:03:24.759Z,6444.00
2023-01-03T09:04:25.497Z,4800.00
2023-01-03T09:05:26.197Z,4448.00
2023-01-03T09:06:26.906Z,4176.00
2023-01-03T09:07:27.611Z,3952.00
2023-01-03T09:08:28.338Z,3780.00
2023-01-03T09:09:29.015Z,3868.00
2023-01-03T09:10:29.726Z,4092.00
2023-01-03T09:11:30.424Z,4292.00
2023-01-03T09:12:31.137Z,4632.00
2023-01-03T09:13:31.880Z,4804.00
2023-01-03T09:14:32.572Z,5168.00
2023-01-03T09:15:33.271Z,5340.00
2023-01-03T09:16:34.071Z,5060.00
2023-01-03T09:17:34.822Z,4628.00
2023-01-03T09:18:35.565Z,4200.00
2023-01-03T09:19:36.278Z,3576.00
2023-01-03T09:20:36.984Z,3332.00
2023-01-03T09:21:37.689Z,3464.00
2023-01-03T09:22:38.396Z,3488.00
2023-01-03T09:23:39.189Z,3552.00
2023-01-03T09:24:39.865Z,5288.00
2023-01-03T09:25:40.571Z,6192.00
2023-01-03T09:26:41.280Z,6028.00
2023-01-03T09:27:42.006Z,5228.00
2023-01-03T09:28:43.111Z,7224.00
2023-01-03T09:29:43.279Z,8776.00
2023-01-03T09:30:43.987Z,9788.00
2023-01-03T09:31:46.007Z,10176.00
2023-01-03T09:32:45.334Z,9536.00
2023-01-03T09:33:46.053Z,8984.00
2023-01-03T09:34:46.751Z,8028.00
2023-01-03T09:35:47.454Z,8104.00
2023-01-03T09:36:48.162Z,6008.00
2023-01-03T09:37:49.229Z,5540.00
2023-01-03T09:38:49.447Z,5204.00
2023-01-03T09:39:50.099Z,5288.00
2023-01-03T09:40:50.807Z,5884.00
2023-01-03T09:41:51.510Z,6272.00
2023-01-03T09:42:52.215Z,6604.00
2023-01-03T09:43:53.083Z,6616.00
2023-01-03T09:44:53.719Z,6708.00
2023-01-03T09:45:54.413Z,6896.00
2023-01-03T09:46:55.182Z,6688.00
2023-01-03T09:47:55.833Z,6840.00
2023-01-03T09:48:56.557Z,9604.00
2023-01-03T09:50:27.748Z,10152.00
2023-01-03T09:51:19.534Z,8020.00
2023-01-03T09:51:59.459Z,8084.00
2023-01-03T09:52:59.163Z,7604.00
2023-01-03T09:53:59.896Z,5496.00
2023-01-03T09:55:00.568Z,4964.00
2023-01-03T09:56:01.264Z,6460.00
2023-01-03T09:57:01.984Z,10668.00
2023-01-03T09:58:02.683Z,12324.00
2023-01-03T09:59:03.439Z,13916.00
2023-01-03T10:00:04.100Z,13776.00
2023-01-03T10:01:04.889Z,11676.00
2023-01-03T10:02:05.814Z,7888.00
2023-01-03T10:03:06.352Z,5836.00
2023-01-03T10:04:07.590Z,4956.00
2023-01-03T10:05:07.854Z,5412.00
2023-01-03T10:06:08.549Z,6576.00
2023-01-03T10:07:09.254Z,8344.00
2023-01-03T10:08:09.957Z,9028.00
2023-01-03T10:09:10.695Z,9056.00
2023-01-03T10:10:14.477Z,9720.00
2023-01-03T10:11:11.905Z,9400.00
2023-01-03T10:12:12.602Z,9160.00
2023-01-03T10:13:19.525Z,8468.00
2023-01-03T10:14:15.133Z,7812.00
2023-01-03T10:15:14.804Z,8476.00
2023-01-03T10:16:15.598Z,10696.00
2023-01-03T10:17:16.254Z,10276.00
2023-01-03T10:18:16.964Z,9552.00
2023-01-03T10:19:17.693Z,8020.00
2023-01-03T10:20:18.416Z,7256.00
2023-01-03T10:21:19.122Z,7012.00
2023-01-03T10:22:19.832Z,6940.00
2023-01-03T10:23:20.541Z,6968.00
2023-01-03T10:24:21.290Z,7008.00
2023-01-03T10:25:21.939Z,4856.00
2023-01-03T10:26:25.400Z,7104.00
2023-01-03T10:27:24.238Z,7708.00
2023-01-03T10:28:23.943Z,11088.00
2023-01-03T10:29:24.749Z,10056.00
2023-01-03T10:30:25.436Z,12324.00
2023-01-03T10:31:26.299Z,16224.00
2023-01-03T10:32:26.997Z,15872.00
2023-01-03T10:33:27.703Z,14564.00
2023-01-03T10:34:28.419Z,12960.00
2023-01-03T10:35:29.126Z,12336.00
2023-01-03T10:36:29.826Z,10008.00
2023-01-03T10:37:30.548Z,6928.00
2023-01-03T10:38:34.322Z,5228.00
2023-01-03T10:39:32.868Z,4940.00
2023-01-03T10:40:32.526Z,4956.00
2023-01-03T10:41:33.232Z,4736.00
2023-01-03T10:42:33.939Z,4900.00
2023-01-03T10:43:34.638Z,5696.00
2023-01-03T10:44:35.380Z,6592.00
2023-01-03T10:45:41.604Z,7128.00
2023-01-03T10:46:37.736Z,7204.00
2023-01-03T10:47:37.385Z,7444.00
2023-01-03T10:49:00.005Z,7328.00
2023-01-03T10:49:39.698Z,6812.00
2023-01-03T10:50:39.409Z,5816.00
2023-01-03T10:51:42.889Z,4900.00
2023-01-03T10:52:40.951Z,4748.00
2023-01-03T10:53:41.655Z,4496.00
2023-01-03T10:54:42.396Z,4644.00
2023-01-03T10:55:43.041Z,4836.00
2023-01-03T10:56:43.770Z,4940.00
2023-01-03T10:57:44.519Z,4884.00
2023-01-03T10:58:45.178Z,4756.00
2023-01-03T10:59:45.916Z,4652.00
2023-01-03T11:00:46.650Z,5508.00
2023-01-03T11:01:47.459Z,7500.00
2023-01-03T11:02:48.310Z,8372.00
2023-01-03T11:03:51.528Z,7680.00
2023-01-03T11:04:49.946Z,6944.00
2023-01-03T11:05:50.643Z,5740.00
2023-01-03T11:06:51.352Z,5636.00
2023-01-03T11:07:52.073Z,6032.00
2023-01-03T11:08:52.778Z,6224.00
2023-01-03T11:09:53.606Z,5992.00
2023-01-03T11:10:54.245Z,5184.00
2023-01-03T11:11:54.942Z,5060.00
2023-01-03T11:12:55.672Z,7744.00
2023-01-03T11:13:56.388Z,6860.00
2023-01-03T11:14:57.093Z,9212.00
2023-01-03T11:15:57.779Z,8628.00
2023-01-03T11:16:58.641Z,8532.00
2023-01-03T11:17:59.309Z,7244.00
2023-01-03T11:19:00.009Z,7168.00
2023-01-03T11:20:00.738Z,7476.00
2023-01-03T11:21:01.433Z,6976.00
2023-01-03T11:22:02.158Z,5288.00
2023-01-03T11:23:02.843Z,4180.00
2023-01-03T11:24:03.551Z,4492.00
2023-01-03T11:25:04.341Z,5240.00
2023-01-03T11:26:04.972Z,5748.00
2023-01-03T11:27:05.676Z,5512.00
2023-01-03T11:28:11.945Z,5056.00
2023-01-03T11:29:07.981Z,4448.00
2023-01-03T11:30:07.721Z,5868.00
2023-01-03T11:31:08.400Z,8368.00
2023-01-03T11:32:09.198Z,11756.00
2023-01-03T11:33:09.868Z,10564.00
2023-01-03T11:34:10.580Z,8152.00
2023-01-03T11:35:22.955Z,6216.00
2023-01-03T11:36:12.903Z,5620.00
2023-01-03T11:37:12.612Z,3572.00
2023-01-03T11:38:13.318Z,2684.00
2023-01-03T11:39:16.315Z,2928.00
2023-01-03T11:40:14.710Z,3552.00
2023-01-03T11:41:15.341Z,4312.00
2023-01-03T11:42:16.056Z,5308.00
2023-01-03T11:43:16.756Z,6564.00
2023-01-03T11:44:17.461Z,6384.00
2023-01-03T11:45:18.602Z,5740.00
2023-01-03T11:46:18.890Z,5648.00
2023-01-03T11:47:19.613Z,6040.00
2023-01-03T11:48:20.321Z,4136.00
2023-01-03T11:49:21.048Z,3448.00
2023-01-03T11:50:22.081Z,3400.00
2023-01-03T11:51:22.784Z,3580.00
2023-01-03T11:52:23.490Z,3376.00
2023-01-03T11:53:24.208Z,3920.00
2023-01-03T11:54:24.898Z,4224.00
2023-01-03T11:55:26.141Z,3932.00
2023-01-03T11:56:26.286Z,3404.00
2023-01-03T11:57:26.989Z,2992.00
2023-01-03T11:58:27.706Z,2916.00
2023-01-03T11:59:28.406Z,3052.00
2023-01-03T12:00:29.139Z,2820.00
2023-01-03T12:01:33.954Z,2500.00
2023-01-03T12:02:31.487Z,2760.00
2023-01-03T12:03:31.395Z,3100.00
2023-01-03T12:04:32.192Z,3252.00
2023-01-03T12:05:33.094Z,3144.00
2023-01-03T12:06:33.819Z,3336.00
2023-01-03T12:07:47.756Z,3088.00
2023-01-03T12:08:36.110Z,2856.00
2023-01-03T12:09:35.816Z,3060.00
2023-01-03T12:10:36.616Z,3184.00
2023-01-03T12:11:37.265Z,3152.00
2023-01-03T12:12:37.984Z,3128.00
2023-01-03T12:13:38.689Z,3040.00
2023-01-03T12:14:39.396Z,2592.00
2023-01-03T12:15:40.725Z,2604.00
2023-01-03T12:16:40.910Z,2516.00
2023-01-03T12:17:41.627Z,1792.00
2023-01-03T12:18:42.329Z,1600.00
2023-01-03T12:19:43.060Z,1676.00
2023-01-03T12:20:44.093Z,1700.00
2023-01-03T12:21:44.300Z,1788.00
2023-01-03T12:22:45.014Z,2196.00
2023-01-03T12:23:45.724Z,2888.00
2023-01-03T12:24:46.433Z,3884.00
2023-01-03T12:25:47.611Z,4964.00
2023-01-03T12:26:47.739Z,5864.00
2023-01-03T12:27:48.456Z,6084.00
2023-01-03T12:28:49.160Z,6760.00
2023-01-03T12:29:49.857Z,7432.00
2023-01-03T12:30:50.642Z,5800.00
2023-01-03T12:31:51.414Z,4564.00
2023-01-03T12:32:52.100Z,5560.00
2023-01-03T12:33:52.787Z,7252.00
2023-01-03T12:34:53.497Z,7344.00
2023-01-03T12:35:54.204Z,7304.00
2023-01-03T12:36:54.912Z,6924.00
2023-01-03T12:37:55.616Z,7912.00
2023-01-03T12:38:56.318Z,8920.00
2023-01-03T12:39:57.024Z,8580.00
2023-01-03T12:40:57.759Z,9924.00
2023-01-03T12:41:58.447Z,10324.00
2023-01-03T12:42:59.172Z,8440.00
2023-01-03T12:43:59.905Z,8120.00
2023-01-03T12:45:00.620Z,8668.00
2023-01-03T12:46:05.649Z,7212.00
2023-01-03T12:47:03.022Z,7916.00
2023-01-03T12:48:02.685Z,7764.00
2023-01-03T12:49:03.391Z,7528.00
2023-01-03T12:50:04.100Z,8172.00
2023-01-03T12:51:04.814Z,9488.00
2023-01-03T12:52:05.525Z,8652.00
2023-01-03T12:53:06.221Z,7376.00
2023-01-03T12:54:06.924Z,6332.00
2023-01-03T12:55:07.634Z,6832.00